createdAt,value
2023-05-05T00:00:28.722Z,98883.89
2023-05-05T00:01:49.225Z,98882.73
2023-05-05T00:02:54.832Z,98883.98
2023-05-05T00:04:01.001Z,98885.07
2023-05-05T00:05:07.230Z,98882.19
2023-05-05T00:06:13.211Z,98882.23
2023-05-05T00:07:19.308Z,98883.60
2023-05-05T00:08:24.899Z,98884.52
2023-05-05T00:09:30.307Z,98883.40
2023-05-05T00:10:36.950Z,98879.80
2023-05-05T00:11:43.191Z,98881.80
2023-05-05T00:12:48.578Z,98885.07
2023-05-05T00:13:54.215Z,98885.95
2023-05-05T00:14:59.730Z,98883.89
2023-05-05T00:16:05.555Z,98885.19
2023-05-05T00:17:11.067Z,98886.28
2023-05-05T00:18:18.488Z,98889.02
2023-05-05T00:19:24.072Z,98887.73
2023-05-05T00:20:29.986Z,98887.90
2023-05-05T00:21:36.463Z,98888.27
2023-05-05T00:22:42.835Z,98890.74
2023-05-05T00:23:48.698Z,98890.73
2023-05-05T00:24:54.298Z,98894.83
2023-05-05T00:25:59.684Z,98889.30
2023-05-05T00:27:05.696Z,98888.30
2023-05-05T00:28:11.280Z,98888.96
2023-05-05T00:29:16.991Z,98891.05
2023-05-05T00:30:22.615Z,98886.05
2023-05-05T00:31:28.800Z,98891.21
2023-05-05T00:32:34.441Z,98894.14
2023-05-05T00:33:40.075Z,98892.08
2023-05-05T00:34:45.931Z,98891.16
2023-05-05T00:35:52.485Z,98894.64
2023-05-05T00:36:58.239Z,98892.55
2023-05-05T00:38:15.930Z,98896.73
2023-05-05T00:39:21.968Z,98899.84
2023-05-05T00:40:27.791Z,98899.73
2023-05-05T00:41:33.820Z,98900.48
2023-05-05T00:42:44.462Z,98904.94
2023-05-05T00:43:49.976Z,98904.88
2023-05-05T00:44:55.904Z,98902.48
2023-05-05T00:46:03.465Z,98901.69
2023-05-05T00:47:12.823Z,98905.70
2023-05-05T00:48:20.355Z,98902.08
2023-05-05T00:49:26.131Z,98899.56
2023-05-05T00:50:32.145Z,98899.23
2023-05-05T00:51:37.523Z,98899.66
2023-05-05T00:52:43.088Z,98898.46
2023-05-05T00:53:49.223Z,98896.20
2023-05-05T00:54:54.741Z,98900.58
2023-05-05T00:56:00.155Z,98898.79
2023-05-05T00:57:05.961Z,98899.83
2023-05-05T00:58:11.828Z,98900.75
2023-05-05T00:59:18.250Z,98897.34
2023-05-05T01:00:24.030Z,98902.38
2023-05-05T01:01:29.568Z,98901.51
2023-05-05T01:02:35.112Z,98903.30
2023-05-05T01:03:40.781Z,98902.38
2023-05-05T01:04:46.858Z,98904.42
2023-05-05T01:06:27.545Z,98903.51
2023-05-05T01:07:56.668Z,98906.45
2023-05-05T01:09:20.174Z,98906.21
2023-05-05T01:10:47.133Z,98906.21
2023-05-05T01:12:05.253Z,98905.94
2023-05-05T01:13:38.551Z,98905.77
2023-05-05T01:14:47.739Z,98904.02
2023-05-05T01:16:14.915Z,98908.43
2023-05-05T01:17:22.642Z,98910.12
2023-05-05T01:18:50.351Z,98905.05
2023-05-05T01:20:04.662Z,98906.52
2023-05-05T01:21:24.228Z,98907.45
2023-05-05T01:22:46.879Z,98907.83
2023-05-05T01:24:31.707Z,98910.10
2023-05-05T01:26:03.925Z,98911.69
2023-05-05T01:27:39.093Z,98911.52
2023-05-05T01:29:10.769Z,98909.75
2023-05-05T01:30:48.095Z,98911.00
2023-05-05T01:31:57.573Z,98910.48
2023-05-05T01:33:07.065Z,98910.45
2023-05-05T01:34:12.752Z,98913.00
2023-05-05T01:35:21.902Z,98912.86
2023-05-05T01:36:40.448Z,98912.90
2023-05-05T01:37:56.406Z,98912.77
2023-05-05T01:39:02.557Z,98916.27
2023-05-05T01:40:10.037Z,98918.79
2023-05-05T01:41:19.392Z,98920.76
2023-05-05T01:42:25.172Z,98916.11
2023-05-05T01:43:33.004Z,98919.48
2023-05-05T01:44:38.641Z,98922.86
2023-05-05T01:45:44.614Z,98925.23
2023-05-05T01:46:50.161Z,98926.48
2023-05-05T01:47:56.539Z,98926.64
2023-05-05T01:49:02.411Z,98923.65
2023-05-05T01:50:10.101Z,98923.61
2023-05-05T01:51:15.770Z,98926.33
2023-05-05T01:52:21.193Z,98924.27
2023-05-05T01:53:26.626Z,98922.48
2023-05-05T01:54:34.069Z,98921.30
2023-05-05T01:55:39.423Z,98921.67
2023-05-05T01:56:45.018Z,98922.65
2023-05-05T01:57:50.704Z,98925.31
2023-05-05T01:58:56.296Z,98926.08
2023-05-05T02:00:02.619Z,98928.23
2023-05-05T02:01:22.469Z,98929.05
2023-05-05T02:02:28.465Z,98930.51
2023-05-05T02:03:34.487Z,98933.02
2023-05-05T02:04:42.674Z,98931.44
2023-05-05T02:05:47.994Z,98934.90
2023-05-05T02:06:54.012Z,98933.23
2023-05-05T02:08:00.636Z,98932.68
2023-05-05T02:09:07.101Z,98933.98
2023-05-05T02:10:14.147Z,98938.04
2023-05-05T02:11:19.758Z,98937.77
2023-05-05T02:12:25.408Z,98939.50
2023-05-05T02:13:32.812Z,98939.92
2023-05-05T02:14:38.337Z,98938.84
2023-05-05T02:15:43.767Z,98943.35
2023-05-05T02:16:49.427Z,98947.15
2023-05-05T02:17:54.894Z,98947.36
2023-05-05T02:19:02.154Z,98948.28
2023-05-05T02:20:08.768Z,98950.92
2023-05-05T02:21:15.280Z,98949.45
2023-05-05T02:22:20.976Z,98956.14
2023-05-05T02:23:26.195Z,98953.80
2023-05-05T02:24:32.458Z,98952.86
2023-05-05T02:25:43.614Z,98954.15
2023-05-05T02:26:50.296Z,98954.73
2023-05-05T02:27:55.764Z,98957.57
2023-05-05T02:29:07.712Z,98959.42
2023-05-05T02:30:15.036Z,98961.13
2023-05-05T02:31:21.795Z,98966.14
2023-05-05T02:32:36.089Z,98966.41
2023-05-05T02:33:41.534Z,98966.99
2023-05-05T02:34:47.599Z,98964.02
2023-05-05T02:35:54.496Z,98966.67
2023-05-05T02:37:02.352Z,98964.06
2023-05-05T02:38:13.886Z,98966.45
2023-05-05T02:39:44.242Z,98967.04
2023-05-05T02:40:52.771Z,98967.30
2023-05-05T02:41:58.781Z,98970.14
2023-05-05T02:43:07.479Z,98973.79
2023-05-05T02:44:13.064Z,98972.49
2023-05-05T02:45:19.283Z,98974.56
2023-05-05T02:46:26.528Z,98976.86
2023-05-05T02:47:41.852Z,98976.10
2023-05-05T02:48:47.612Z,98975.67
2023-05-05T02:49:53.247Z,98977.81
2023-05-05T02:50:58.466Z,98976.31
2023-05-05T02:52:08.727Z,98979.23
2023-05-05T02:53:15.261Z,98982.56
2023-05-05T02:54:20.909Z,98983.22
2023-05-05T02:55:28.076Z,98984.02
2023-05-05T02:56:41.419Z,98983.80
2023-05-05T02:58:07.324Z,98984.61
2023-05-05T02:59:41.328Z,98986.24
2023-05-05T03:00:54.145Z,98986.33
2023-05-05T03:02:19.318Z,98987.70
2023-05-05T03:03:38.323Z,98991.76
2023-05-05T03:04:52.726Z,98994.81
2023-05-05T03:06:07.656Z,98996.81
2023-05-05T03:07:32.380Z,99002.13
2023-05-05T03:08:52.040Z,99001.41
2023-05-05T03:10:04.752Z,99007.80
2023-05-05T03:11:34.253Z,99009.40
2023-05-05T03:12:49.767Z,99007.08
2023-05-05T03:14:12.240Z,99006.91
2023-05-05T03:15:19.120Z,99006.15
2023-05-05T03:16:24.762Z,99004.73
2023-05-05T03:17:31.369Z,99026.56
2023-05-05T03:18:38.150Z,99028.13
2023-05-05T03:19:44.382Z,99033.80
2023-05-05T03:20:50.310Z,99038.42
2023-05-05T03:21:56.947Z,99041.03
2023-05-05T03:23:03.017Z,99042.88
2023-05-05T03:24:19.515Z,99045.05
2023-05-05T03:25:52.572Z,99045.17
2023-05-05T03:27:08.131Z,99048.16
2023-05-05T03:28:17.081Z,99047.92
2023-05-05T03:29:22.780Z,99050.14
2023-05-05T03:30:28.144Z,99049.15
2023-05-05T03:31:33.981Z,99051.84
2023-05-05T03:32:40.005Z,99054.85
2023-05-05T03:33:45.594Z,99052.41
2023-05-05T03:34:54.758Z,99053.96
2023-05-05T03:36:04.517Z,99055.35
2023-05-05T03:37:10.302Z,99058.06
2023-05-05T03:38:16.898Z,99057.58
2023-05-05T03:39:22.432Z,99055.02
2023-05-05T03:40:40.319Z,99055.34
2023-05-05T03:41:49.276Z,99057.10
2023-05-05T03:42:55.524Z,99060.19
2023-05-05T03:44:01.402Z,99060.74
2023-05-05T03:45:07.871Z,99061.45
2023-05-05T03:46:13.470Z,99062.73
2023-05-05T03:47:20.384Z,99065.04
2023-05-05T03:48:26.365Z,99064.09
2023-05-05T03:49:32.561Z,99064.11
2023-05-05T03:50:38.398Z,99060.34
2023-05-05T03:51:44.934Z,99057.43
2023-05-05T03:52:50.840Z,99059.79
2023-05-05T03:53:57.260Z,99058.02
2023-05-05T03:55:02.948Z,99056.89
2023-05-05T03:56:08.355Z,99055.29
2023-05-05T03:57:14.111Z,99059.92
2023-05-05T03:58:20.548Z,99060.17
2023-05-05T03:59:27.118Z,99060.23
2023-05-05T04:00:33.422Z,99058.55
2023-05-05T04:01:39.278Z,99071.40
2023-05-05T04:02:44.636Z,99077.41
2023-05-05T04:03:51.204Z,99074.69
2023-05-05T04:04:56.805Z,99076.18
2023-05-05T04:06:02.665Z,99080.55
2023-05-05T04:07:08.889Z,99078.36
2023-05-05T04:08:14.953Z,99083.43
2023-05-05T04:09:20.806Z,99082.94
2023-05-05T04:10:26.669Z,99085.66
2023-05-05T04:11:32.380Z,99087.67
2023-05-05T04:12:37.961Z,99093.71
2023-05-05T04:13:44.578Z,99092.66
2023-05-05T04:14:50.721Z,99097.23
2023-05-05T04:15:56.948Z,99097.98
2023-05-05T04:17:02.537Z,99100.15
2023-05-05T04:18:09.013Z,99094.86
2023-05-05T04:19:15.068Z,99094.04
2023-05-05T04:20:22.167Z,99091.52
2023-05-05T04:21:28.778Z,99089.55
2023-05-05T04:22:34.731Z,99091.77
2023-05-05T04:23:41.500Z,99089.91
2023-05-05T04:24:47.653Z,99092.25
2023-05-05T04:25:53.396Z,99089.67
2023-05-05T04:26:59.331Z,99092.54
2023-05-05T04:28:05.795Z,99092.42
2023-05-05T04:29:11.774Z,99094.70
2023-05-05T04:30:18.396Z,99094.73
2023-05-05T04:31:23.867Z,99096.96
2023-05-05T04:32:30.935Z,99098.66
2023-05-05T04:33:36.424Z,99100.45
2023-05-05T04:34:42.283Z,99102.14
2023-05-05T04:35:48.125Z,99102.77
2023-05-05T04:36:54.891Z,99103.83
2023-05-05T04:38:01.172Z,99104.31
2023-05-05T04:39:09.194Z,99105.23
2023-05-05T04:40:15.568Z,99103.63
2023-05-05T04:41:21.785Z,99105.95
2023-05-05T04:42:28.050Z,99108.65
2023-05-05T04:43:34.210Z,99110.44
2023-05-05T04:44:39.963Z,99113.03
2023-05-05T04:45:56.508Z,99113.39
2023-05-05T04:47:06.657Z,99114.35
2023-05-05T04:48:12.700Z,99116.81
2023-05-05T04:49:19.248Z,99117.73
2023-05-05T04:50:25.397Z,99119.99
2023-05-05T04:51:32.851Z,99118.77
2023-05-05T04:52:38.655Z,99121.10
2023-05-05T04:53:44.168Z,99119.33
2023-05-05T04:54:50.066Z,99115.36
2023-05-05T04:55:55.576Z,99114.95
2023-05-05T04:57:01.220Z,99114.81
2023-05-05T04:58:07.168Z,99117.45
2023-05-05T04:59:13.191Z,99115.95
2023-05-05T05:00:19.529Z,99116.55
2023-05-05T05:01:24.650Z,99117.64
2023-05-05T05:02:30.589Z,99118.26
2023-05-05T05:03:37.104Z,99116.75
2023-05-05T05:04:43.037Z,99115.54
2023-05-05T05:05:49.803Z,99116.99
2023-05-05T05:06:56.873Z,99116.40
2023-05-05T05:08:05.498Z,99115.00
2023-05-05T05:09:12.133Z,99113.45
2023-05-05T05:10:18.384Z,99117.17
2023-05-05T05:11:25.862Z,99117.09
2023-05-05T05:12:32.178Z,99115.81
2023-05-05T05:13:37.856Z,99116.58
2023-05-05T05:14:43.953Z,99119.50
2023-05-05T05:15:50.395Z,99119.31
2023-05-05T05:16:56.746Z,99117.96
2023-05-05T05:18:02.687Z,99117.86
2023-05-05T05:19:08.924Z,99117.23
2023-05-05T05:20:15.183Z,99117.14
2023-05-05T05:21:21.320Z,99117.15
2023-05-05T05:22:27.578Z,99120.84
2023-05-05T05:23:33.520Z,99121.99
2023-05-05T05:24:39.569Z,99123.45
2023-05-05T05:25:45.365Z,99121.64
2023-05-05T05:26:53.189Z,99123.18
2023-05-05T05:28:09.560Z,99126.86
2023-05-05T05:29:21.034Z,99126.50
2023-05-05T05:30:27.339Z,99128.21
2023-05-05T05:31:34.845Z,99127.52
2023-05-05T05:32:41.073Z,99127.27
2023-05-05T05:33:47.782Z,99124.93
2023-05-05T05:34:54.364Z,99124.07
2023-05-05T05:36:00.731Z,99123.53
2023-05-05T05:37:06.798Z,99126.55
2023-05-05T05:38:12.425Z,99126.58
2023-05-05T05:39:18.591Z,99122.14
2023-05-05T05:40:24.426Z,99122.77
2023-05-05T05:41:30.473Z,99119.02
2023-05-05T05:42:36.701Z,99119.30
2023-05-05T05:43:42.585Z,99118.19
2023-05-05T05:44:47.707Z,99118.06
2023-05-05T05:45:54.348Z,99118.08
2023-05-05T05:47:00.042Z,99117.82
2023-05-05T05:48:06.397Z,99119.13
2023-05-05T05:49:12.168Z,99120.48
2023-05-05T05:50:18.577Z,99120.58
2023-05-05T05:51:24.380Z,99123.09
2023-05-05T05:52:29.950Z,99123.70
2023-05-05T05:53:36.103Z,99124.42
2023-05-05T05:54:41.730Z,99126.18
2023-05-05T05:55:48.078Z,99122.08
2023-05-05T05:56:54.026Z,99123.52
2023-05-05T05:58:00.154Z,99124.36
2023-05-05T05:59:08.800Z,99125.31
2023-05-05T06:00:16.544Z,99125.61
2023-05-05T06:01:24.310Z,99127.57
2023-05-05T06:02:30.154Z,99126.16
2023-05-05T06:03:36.184Z,99127.58
2023-05-05T06:04:42.334Z,99129.23
2023-05-05T06:06:08.638Z,99128.48
2023-05-05T06:07:14.857Z,99124.27
2023-05-05T06:08:23.013Z,99128.17
2023-05-05T06:09:33.446Z,99124.85
2023-05-05T06:10:40.523Z,99127.69
2023-05-05T06:11:49.226Z,99126.23
2023-05-05T06:12:57.781Z,99126.19
2023-05-05T06:14:03.439Z,99126.86
2023-05-05T06:15:15.813Z,99129.31
2023-05-05T06:16:21.935Z,99129.92
2023-05-05T06:17:27.854Z,99128.79
2023-05-05T06:18:37.355Z,99132.30
2023-05-05T06:19:43.867Z,99135.21
2023-05-05T06:20:52.868Z,99132.21
2023-05-05T06:21:59.769Z,99134.57
2023-05-05T06:23:05.466Z,99129.81
2023-05-05T06:24:12.647Z,99134.59
2023-05-05T06:25:19.522Z,99134.22
2023-05-05T06:26:25.197Z,99129.25
2023-05-05T06:27:31.384Z,99131.55
2023-05-05T06:28:36.952Z,99129.14
2023-05-05T06:29:42.926Z,99127.79
2023-05-05T06:30:48.817Z,99127.02
2023-05-05T06:31:54.402Z,99127.95
2023-05-05T06:33:00.260Z,99129.39
2023-05-05T06:34:05.958Z,99131.97
2023-05-05T06:35:11.469Z,99131.10
2023-05-05T06:36:17.516Z,99130.02
2023-05-05T06:37:23.551Z,99132.70
2023-05-05T06:38:30.173Z,99134.58
2023-05-05T06:39:36.628Z,99135.40
2023-05-05T06:40:43.016Z,99136.94
2023-05-05T06:41:48.493Z,99139.23
2023-05-05T06:42:54.040Z,99137.95
2023-05-05T06:44:02.542Z,99139.02
2023-05-05T06:45:09.400Z,99136.27
2023-05-05T06:46:15.709Z,99135.67
2023-05-05T06:47:21.802Z,99136.07
2023-05-05T06:48:28.049Z,99134.48
2023-05-05T06:49:33.844Z,99135.75
2023-05-05T06:50:40.067Z,99132.75
2023-05-05T06:51:45.811Z,99131.98
2023-05-05T06:52:51.237Z,99133.02
2023-05-05T06:53:56.870Z,99130.47
2023-05-05T06:55:04.736Z,99132.84
2023-05-05T06:56:10.761Z,99132.13
2023-05-05T06:57:17.280Z,99130.77
2023-05-05T06:58:23.859Z,99129.02
2023-05-05T06:59:30.308Z,99128.30
2023-05-05T07:00:39.604Z,99128.59
2023-05-05T07:01:45.068Z,99128.27
2023-05-05T07:02:51.067Z,99125.08
2023-05-05T07:03:57.254Z,99124.21
2023-05-05T07:05:03.242Z,99126.02
2023-05-05T07:06:09.109Z,99121.82
2023-05-05T07:07:14.739Z,99122.31
2023-05-05T07:08:20.559Z,99121.42
2023-05-05T07:09:26.218Z,99121.44
2023-05-05T07:10:32.369Z,99123.69
2023-05-05T07:11:38.521Z,99119.48
2023-05-05T07:12:43.812Z,99116.36
2023-05-05T07:13:50.164Z,99118.10
2023-05-05T07:14:56.904Z,99119.32
2023-05-05T07:16:02.463Z,99117.59
2023-05-05T07:17:08.406Z,99116.10
2023-05-05T07:18:14.854Z,99115.02
2023-05-05T07:19:20.911Z,99115.51
2023-05-05T07:20:27.236Z,99114.80
2023-05-05T07:21:37.209Z,99115.67
2023-05-05T07:22:43.217Z,99114.52
2023-05-05T07:23:49.109Z,99115.68
2023-05-05T07:24:55.344Z,99111.52
2023-05-05T07:26:01.560Z,99112.13
2023-05-05T07:27:08.390Z,99113.23
2023-05-05T07:28:14.624Z,99112.08
2023-05-05T07:29:20.575Z,99111.91
2023-05-05T07:30:29.007Z,99112.95
2023-05-05T07:31:35.066Z,99114.38
2023-05-05T07:32:40.896Z,99113.52
2023-05-05T07:33:46.926Z,99110.44
2023-05-05T07:34:52.745Z,99111.65
2023-05-05T07:35:59.040Z,99110.29
2023-05-05T07:37:05.666Z,99113.20
2023-05-05T07:38:11.317Z,99106.23
2023-05-05T07:39:16.863Z,99104.48
2023-05-05T07:40:22.400Z,99108.60
2023-05-05T07:41:28.630Z,99107.13
2023-05-05T07:42:34.913Z,99112.06
2023-05-05T07:43:44.614Z,99112.89
2023-05-05T07:44:50.369Z,99113.71
2023-05-05T07:45:56.526Z,99116.52
2023-05-05T07:47:02.473Z,99112.59
2023-05-05T07:48:08.312Z,99114.02
2023-05-05T07:49:14.563Z,99111.05
2023-05-05T07:50:19.906Z,99113.52
2023-05-05T07:51:26.083Z,99110.23
2023-05-05T07:52:45.080Z,99109.52
2023-05-05T07:53:56.660Z,99107.11
2023-05-05T07:55:02.330Z,99106.02
2023-05-05T07:56:09.499Z,99107.49
2023-05-05T07:57:15.337Z,99103.55
2023-05-05T07:58:20.973Z,99101.10
2023-05-05T07:59:26.634Z,99101.82
2023-05-05T08:00:32.670Z,99101.59
2023-05-05T08:01:38.636Z,99101.65
2023-05-05T08:02:44.621Z,99099.73
2023-05-05T08:03:51.022Z,99100.34
2023-05-05T08:04:57.467Z,99103.23
2023-05-05T08:06:10.581Z,99105.81
2023-05-05T08:07:16.520Z,99103.18
2023-05-05T08:08:25.255Z,99107.24
2023-05-05T08:09:30.959Z,99108.39
2023-05-05T08:10:36.832Z,99108.06
2023-05-05T08:11:42.315Z,99109.33
2023-05-05T08:12:47.913Z,99108.01
2023-05-05T08:13:53.737Z,99107.95
2023-05-05T08:14:59.716Z,99108.66
2023-05-05T08:16:06.062Z,99109.21
2023-05-05T08:17:12.505Z,99109.55
2023-05-05T08:18:19.202Z,99109.48
2023-05-05T08:19:29.404Z,99114.36
2023-05-05T08:20:36.501Z,99115.08
2023-05-05T08:21:42.188Z,99116.56
2023-05-05T08:22:48.070Z,99114.98
2023-05-05T08:23:54.103Z,99116.95
2023-05-05T08:25:00.449Z,99117.50
2023-05-05T08:26:06.938Z,99119.52
2023-05-05T08:27:14.446Z,99118.65
2023-05-05T08:28:21.031Z,99115.14
2023-05-05T08:29:27.141Z,99113.93
2023-05-05T08:30:33.208Z,99114.86
2023-05-05T08:31:39.156Z,99116.84
2023-05-05T08:32:45.139Z,99113.55
2023-05-05T08:33:50.651Z,99114.97
2023-05-05T08:34:56.882Z,99113.70
2023-05-05T08:36:02.623Z,99111.35
2023-05-05T08:37:11.370Z,99111.90
2023-05-05T08:38:16.941Z,99109.15
2023-05-05T08:39:23.759Z,99109.87
2023-05-05T08:40:37.805Z,99104.49
2023-05-05T08:41:43.216Z,99105.75
2023-05-05T08:42:48.629Z,99102.35
2023-05-05T08:43:54.785Z,99100.20
2023-05-05T08:45:00.158Z,99099.77
2023-05-05T08:46:06.431Z,99100.38
2023-05-05T08:47:12.216Z,99097.64
2023-05-05T08:48:21.156Z,99095.98
2023-05-05T08:49:27.176Z,99093.79
2023-05-05T08:50:33.760Z,99089.57
2023-05-05T08:51:42.973Z,99087.16
2023-05-05T08:52:50.703Z,99085.73
2023-05-05T08:54:02.308Z,99085.01
2023-05-05T08:55:19.467Z,99081.73
2023-05-05T08:56:28.105Z,99080.81
2023-05-05T08:57:59.692Z,99079.55
2023-05-05T08:59:05.227Z,99077.80
2023-05-05T09:00:11.491Z,99078.27
2023-05-05T09:01:19.900Z,99072.09
2023-05-05T09:02:25.709Z,99071.37
2023-05-05T09:03:35.624Z,99069.50
2023-05-05T09:04:41.298Z,99071.15
2023-05-05T09:05:47.313Z,99071.25
2023-05-05T09:06:52.928Z,99072.34
2023-05-05T09:07:58.737Z,99073.94
2023-05-05T09:09:04.758Z,99077.34
2023-05-05T09:10:11.594Z,99077.33
2023-05-05T09:11:17.313Z,99076.61
2023-05-05T09:12:23.099Z,99077.48
2023-05-05T09:13:29.101Z,99080.56
2023-05-05T09:14:35.319Z,99081.28
2023-05-05T09:15:42.614Z,99081.33
2023-05-05T09:16:48.211Z,99080.39
2023-05-05T09:17:54.289Z,99077.10
2023-05-05T09:19:05.553Z,99072.76
2023-05-05T09:20:12.821Z,99070.45
2023-05-05T09:21:23.363Z,99072.26
2023-05-05T09:22:34.807Z,99068.41
2023-05-05T09:23:40.522Z,99070.73
2023-05-05T09:24:57.623Z,99068.13
2023-05-05T09:26:09.619Z,99066.48
2023-05-05T09:27:25.418Z,99061.92
2023-05-05T09:28:31.450Z,99057.64
2023-05-05T09:29:37.210Z,99053.02
2023-05-05T09:30:46.046Z,99053.08
2023-05-05T09:32:11.812Z,99052.03
2023-05-05T09:33:18.585Z,99049.23
2023-05-05T09:34:24.026Z,99048.63
2023-05-05T09:35:30.404Z,99048.17
2023-05-05T09:36:48.988Z,99048.84
2023-05-05T09:37:55.454Z,99043.35
2023-05-05T09:39:08.545Z,99046.80
2023-05-05T09:40:18.824Z,99047.73
2023-05-05T09:41:42.560Z,99047.30
2023-05-05T09:42:48.033Z,99046.52
2023-05-05T09:43:53.622Z,99048.16
2023-05-05T09:45:00.029Z,99051.28
2023-05-05T09:46:08.843Z,99052.10
2023-05-05T09:47:28.471Z,99050.67
2023-05-05T09:48:35.233Z,99050.00
2023-05-05T09:49:41.269Z,99051.48
2023-05-05T09:50:46.983Z,99047.85
2023-05-05T09:51:53.455Z,99051.09
2023-05-05T09:53:01.136Z,99052.08
2023-05-05T09:54:07.717Z,99051.14
2023-05-05T09:55:19.557Z,99049.31
2023-05-05T09:56:39.736Z,99052.28
2023-05-05T09:57:45.186Z,99049.70
2023-05-05T09:58:51.021Z,99047.83
2023-05-05T09:59:58.563Z,99051.33
2023-05-05T10:01:04.690Z,99052.32
2023-05-05T10:02:14.466Z,99052.47
2023-05-05T10:03:20.531Z,99053.68
2023-05-05T10:04:30.540Z,99052.80
2023-05-05T10:05:47.470Z,99057.09
2023-05-05T10:06:53.775Z,99058.89
2023-05-05T10:08:02.119Z,99057.95
2023-05-05T10:09:08.267Z,99059.88
2023-05-05T10:10:15.960Z,99060.90
2023-05-05T10:11:21.986Z,99059.16
2023-05-05T10:12:27.944Z,99058.23
2023-05-05T10:13:41.507Z,99062.01
2023-05-05T10:14:47.073Z,99060.95
2023-05-05T10:15:54.290Z,99059.15
2023-05-05T10:17:00.353Z,99059.98
2023-05-05T10:18:08.216Z,99058.98
2023-05-05T10:19:14.761Z,99061.88
2023-05-05T10:20:20.478Z,99063.20
2023-05-05T10:21:26.173Z,99063.19
2023-05-05T10:22:35.147Z,99066.48
2023-05-05T10:23:48.990Z,99064.93
2023-05-05T10:25:11.255Z,99062.52
2023-05-05T10:26:16.798Z,99061.52
2023-05-05T10:27:23.185Z,99059.94
2023-05-05T10:28:36.225Z,99059.66
2023-05-05T10:29:51.381Z,99061.23
2023-05-05T10:31:01.163Z,99062.05
2023-05-05T10:32:40.605Z,99058.05
2023-05-05T10:33:47.970Z,99060.34
2023-05-05T10:34:56.164Z,99055.40
2023-05-05T10:36:03.604Z,99054.90
2023-05-05T10:37:09.868Z,99056.55
2023-05-05T10:38:16.180Z,99056.27
2023-05-05T10:39:22.300Z,99057.42
2023-05-05T10:40:28.460Z,99058.23
2023-05-05T10:41:35.044Z,99059.38
2023-05-05T10:42:40.750Z,99059.46
2023-05-05T10:43:46.725Z,99058.75
2023-05-05T10:44:53.911Z,99062.15
2023-05-05T10:45:59.705Z,99062.32
2023-05-05T10:47:05.453Z,99058.69
2023-05-05T10:48:13.480Z,99061.37
2023-05-05T10:49:46.822Z,99058.85
2023-05-05T10:51:03.151Z,99058.50
2023-05-05T10:52:38.160Z,99059.94
2023-05-05T10:53:53.155Z,99059.81
2023-05-05T10:55:09.016Z,99059.85
2023-05-05T10:56:27.346Z,99062.21
2023-05-05T10:57:33.313Z,99061.71
2023-05-05T10:58:47.518Z,99061.48
2023-05-05T10:59:57.672Z,99064.28
2023-05-05T11:01:04.126Z,99063.40
2023-05-05T11:02:30.554Z,99059.28
2023-05-05T11:03:36.802Z,99060.04
2023-05-05T11:04:42.466Z,99059.05
2023-05-05T11:06:12.515Z,99059.38
2023-05-05T11:07:23.134Z,99057.77
2023-05-05T11:08:29.108Z,99059.20
2023-05-05T11:09:42.851Z,99059.23
2023-05-05T11:10:48.140Z,99053.52
2023-05-05T11:12:04.700Z,99053.02
2023-05-05T11:13:19.675Z,99053.40
2023-05-05T11:14:25.924Z,99052.74
2023-05-05T11:15:38.012Z,99054.15
2023-05-05T11:16:50.494Z,99056.13
2023-05-05T11:18:06.699Z,99057.33
2023-05-05T11:19:46.442Z,99055.95
2023-05-05T11:21:17.511Z,99059.96
2023-05-05T11:22:23.033Z,99057.64
2023-05-05T11:23:28.944Z,99056.30
2023-05-05T11:24:34.626Z,99056.52
2023-05-05T11:25:48.255Z,99056.95
2023-05-05T11:26:53.582Z,99054.64
2023-05-05T11:28:12.758Z,99050.84
2023-05-05T11:29:18.257Z,99049.12
2023-05-05T11:30:24.154Z,99050.44
2023-05-05T11:31:31.755Z,99039.83
2023-05-05T11:32:38.264Z,99027.80
2023-05-05T11:33:44.064Z,99026.87
2023-05-05T11:34:51.357Z,99031.38
2023-05-05T11:36:06.063Z,99030.38
2023-05-05T11:37:12.828Z,99032.89
2023-05-05T11:38:18.932Z,99033.67
2023-05-05T11:39:30.517Z,99035.69
2023-05-05T11:40:36.615Z,99038.27
2023-05-05T11:42:21.837Z,99039.20
2023-05-05T11:43:27.676Z,99039.69
2023-05-05T11:44:34.605Z,99039.19
2023-05-05T11:45:40.276Z,99037.09
2023-05-05T11:47:25.498Z,99035.64
2023-05-05T11:48:32.147Z,99037.95
2023-05-05T11:49:39.059Z,99038.05
2023-05-05T11:50:44.402Z,99039.36
2023-05-05T11:52:01.224Z,99041.94
2023-05-05T11:53:07.697Z,99042.15
2023-05-05T11:54:13.845Z,99041.58
2023-05-05T11:55:23.653Z,99042.84
2023-05-05T11:56:29.588Z,99044.48
2023-05-05T11:57:35.866Z,99045.14
2023-05-05T11:58:42.507Z,99046.12
2023-05-05T11:59:57.175Z,99048.59
2023-05-05T12:01:06.617Z,99052.48
2023-05-05T12:02:12.433Z,99052.05
2023-05-05T12:03:18.487Z,99054.17
2023-05-05T12:04:24.386Z,99056.10
2023-05-05T12:05:30.277Z,99055.77
2023-05-05T12:06:36.135Z,99057.73
2023-05-05T12:07:42.083Z,99061.79
2023-05-05T12:08:47.475Z,99063.92
2023-05-05T12:09:53.166Z,99062.23
2023-05-05T12:11:09.113Z,99061.83
2023-05-05T12:12:15.376Z,99063.25
2023-05-05T12:13:21.662Z,99065.72
2023-05-05T12:14:28.106Z,99065.27
2023-05-05T12:15:34.152Z,99064.88
2023-05-05T12:16:40.017Z,99066.73
2023-05-05T12:17:47.375Z,99070.41
2023-05-05T12:19:06.682Z,99065.45
2023-05-05T12:20:13.577Z,99067.16
2023-05-05T12:21:19.766Z,99067.42
2023-05-05T12:22:26.741Z,99065.77
2023-05-05T12:23:39.318Z,99070.66
2023-05-05T12:24:55.284Z,99071.31
2023-05-05T12:26:00.948Z,99070.71
2023-05-05T12:27:11.168Z,99068.94
2023-05-05T12:28:16.902Z,99070.40
2023-05-05T12:29:30.546Z,99071.49
2023-05-05T12:30:36.924Z,99074.95
2023-05-05T12:31:43.283Z,99080.02
2023-05-05T12:32:49.437Z,99077.64
2023-05-05T12:33:55.880Z,99077.85
2023-05-05T12:35:02.043Z,99080.29
2023-05-05T12:36:08.337Z,99078.34
2023-05-05T12:37:14.501Z,99079.33
2023-05-05T12:38:20.762Z,99080.80
2023-05-05T12:39:37.071Z,99081.30
2023-05-05T12:40:52.341Z,99079.26
2023-05-05T12:42:04.443Z,99081.34
2023-05-05T12:43:10.012Z,99083.20
2023-05-05T12:44:16.287Z,99084.96
2023-05-05T12:45:21.763Z,99085.00
2023-05-05T12:46:29.949Z,99085.92
2023-05-05T12:47:37.468Z,99086.36
2023-05-05T12:48:48.326Z,99088.99
2023-05-05T12:49:57.654Z,99088.66
2023-05-05T12:51:17.493Z,99087.98
2023-05-05T12:52:23.648Z,99086.71
2023-05-05T12:53:29.883Z,99086.88
2023-05-05T12:54:36.550Z,99087.19
2023-05-05T12:55:43.115Z,99089.33
2023-05-05T12:56:48.706Z,99085.41
2023-05-05T12:58:02.582Z,99090.73
2023-05-05T12:59:11.935Z,99093.75
2023-05-05T13:00:19.217Z,99094.52
2023-05-05T13:01:25.130Z,99093.53
2023-05-05T13:02:37.507Z,99092.16
2023-05-05T13:03:43.863Z,99094.04
2023-05-05T13:04:53.615Z,99092.43
2023-05-05T13:05:59.323Z,99091.94
2023-05-05T13:07:18.330Z,99095.29
2023-05-05T13:08:23.861Z,99100.89
2023-05-05T13:09:36.709Z,99105.29
2023-05-05T13:11:01.923Z,99105.73
2023-05-05T13:12:09.065Z,99107.97
2023-05-05T13:13:14.502Z,99108.62
2023-05-05T13:14:20.232Z,99111.42
2023-05-05T13:15:26.647Z,99112.97
2023-05-05T13:16:32.525Z,99112.07
2023-05-05T13:17:38.144Z,99109.04
2023-05-05T13:18:47.670Z,99112.83
2023-05-05T13:19:53.642Z,99114.36
2023-05-05T13:20:59.784Z,99115.12
2023-05-05T13:22:05.751Z,99119.23
2023-05-05T13:23:12.132Z,99118.13
2023-05-05T13:24:28.586Z,99118.41
2023-05-05T13:25:40.372Z,99119.45
2023-05-05T13:26:45.882Z,99121.23